Time;durP1;ratioP1;P1;durP2;ratioP2;P2;SDS_P1;SDS_P2;PMS_P1;PMS_P2;Temp;Humidity;BMP_temperature;BMP_pressure;BME280_temperature;BME280_humidity;BME280_pressure;Samples;Min_cycle;Max_cycle;Signal;HPM_P1;HPM_P2
2023/09/29 00:01:34;;;;;;;10.23;6.43;;;;;;;-141.97;68.51;47580.59;5025485;28;20715;-83
2023/09/29 00:04:01;;;;;;;9.80;6.63;;;;;;;-141.97;68.97;47588.28;5030405;28;20189;-83
2023/09/29 00:06:26;;;;;;;9.80;6.33;;;;;;;-141.97;68.45;47574.81;5031737;28;20230;-84
2023/09/29 00:08:52;;;;;;;15.43;7.30;;;;;;;-141.97;69.06;47665.16;5021634;28;20208;-84
2023/09/29 00:11:17;;;;;;;10.60;6.63;;;;;;;-141.97;68.68;47557.53;5034761;28;20171;-84
2023/09/29 00:13:43;;;;;;;11.67;6.57;;;;;;;-141.97;68.82;47563.28;5013238;28;20802;-83
2023/09/29 00:16:08;;;;;;;13.07;6.47;;;;;;;-141.97;68.64;47544.06;5012959;28;20166;-84
2023/09/29 00:18:33;;;;;;;10.00;6.97;;;;;;;-141.97;68.82;47449.88;5011710;28;20597;-84
2023/09/29 00:20:59;;;;;;;11.30;6.80;;;;;;;-141.97;68.97;47465.25;5011451;28;20171;-85
2023/09/29 00:23:24;;;;;;;10.10;6.93;;;;;;;-141.97;68.50;47576.75;5011383;28;20167;-84
2023/09/29 00:25:50;;;;;;;12.93;6.90;;;;;;;-141.97;68.69;47446.03;5029653;28;20170;-85
2023/09/29 00:28:16;;;;;;;11.17;6.90;;;;;;;-141.97;68.35;47534.44;5026825;28;20264;-85
2023/09/29 00:30:41;;;;;;;10.53;6.77;;;;;;;-141.97;69.18;47722.81;5012562;28;20528;-84
2023/09/29 00:33:07;;;;;;;10.97;7.20;;;;;;;-141.97;70.44;47501.78;5012622;28;20552;-84
2023/09/29 00:35:33;;;;;;;10.03;7.00;;;;;;;-141.97;71.40;47576.75;5014037;28;20249;-83
2023/09/29 00:37:59;;;;;;;12.63;6.90;;;;;;;-141.97;71.87;47595.97;5010594;28;20163;-83
2023/09/29 00:40:25;;;;;;;10.80;7.10;;;;;;;-141.97;71.89;47594.03;5010928;28;20563;-83
2023/09/29 00:42:52;;;;;;;12.70;7.33;;;;;;;-141.97;72.46;47699.75;5001510;28;20682;-84
2023/09/29 00:45:26;;;;;;;11.60;6.60;;;;;;;-141.97;72.88;47636.31;5011056;28;20230;-86
2023/09/29 00:48:07;;;;;;;10.40;6.90;;;;;;;-141.97;73.58;47559.44;5013343;28;20167;-86
2023/09/29 00:50:32;;;;;;;11.03;6.80;;;;;;;-141.97;72.77;47590.19;5011111;28;20174;-85
2023/09/29 00:52:59;;;;;;;11.27;6.20;;;;;;;-141.97;73.09;47584.44;5009175;28;20171;-85
2023/09/29 00:55:28;;;;;;;9.67;7.33;;;;;;;-141.97;73.48;47440.28;5010436;28;20264;-84
2023/09/29 00:57:56;;;;;;;10.57;7.17;;;;;;;-141.97;74.15;47586.34;5010770;28;20159;-84
2023/09/29 01:00:32;;;;;;;11.77;7.00;;;;;;;-141.97;74.48;47665.16;5010522;28;20167;-83
2023/09/29 01:02:59;;;;;;;13.03;7.30;;;;;;;-141.97;74.77;47561.38;5010815;28;20523;-84
2023/09/29 01:05:25;;;;;;;9.93;6.33;;;;;;;-141.97;74.01;47559.44;5010126;28;20632;-82
2023/09/29 01:07:51;;;;;;;10.77;6.43;;;;;;;-141.97;74.04;47611.34;5010370;28;20663;-82
2023/09/29 01:10:17;;;;;;;11.27;7.17;;;;;;;-141.97;73.67;47580.59;5010604;28;20250;-84
2023/09/29 01:12:43;;;;;;;10.03;6.57;;;;;;;-141.97;73.58;47565.22;5012684;28;20171;-83
2023/09/29 01:15:19;;;;;;;12.07;6.80;;;;;;;-141.97;73.76;47584.44;5013287;28;20214;-82
2023/09/29 01:17:44;;;;;;;10.60;6.47;;;;;;;-141.97;73.53;47580.59;5014594;28;20163;-83
2023/09/29 01:20:27;;;;;;;12.70;6.83;;;;;;;-141.97;73.52;47632.47;5014220;28;20555;-83
2023/09/29 01:22:53;;;;;;;12.40;6.50;;;;;;;-141.97;73.23;47565.22;5014037;28;20174;-84
2023/09/29 01:25:19;;;;;;;9.13;6.47;;;;;;;-141.97;73.07;47546.00;5014336;28;20179;-83
2023/09/29 01:27:45;;;;;;;11.30;6.57;;;;;;;-141.97;73.00;47557.53;5014587;28;20171;-85
2023/09/29 01:30:13;;;;;;;11.87;6.50;;;;;;;-141.97;72.96;47586.34;5014064;28;20559;-86
2023/09/29 01:32:40;;;;;;;11.40;6.33;;;;;;;-141.97;73.07;47561.38;5013912;28;20659;-84
2023/09/29 01:35:06;;;;;;;11.00;6.70;;;;;;;-141.97;73.35;47576.75;5013485;28;20206;-84
2023/09/29 01:37:33;;;;;;;11.70;6.23;;;;;;;-141.97;73.30;47567.13;5012197;28;20175;-83
2023/09/29 01:39:59;;;;;;;10.00;6.30;;;;;;;-141.97;73.19;47576.75;5013721;28;20266;-83
2023/09/29 01:42:24;;;;;;;10.67;6.93;;;;;;;-141.97;72.96;47570.97;5003090;28;20313;-83
2023/09/29 01:44:51;;;;;;;10.93;6.63;;;;;;;-141.97;72.77;47592.13;5012967;28;20255;-83
2023/09/29 01:47:16;;;;;;;9.97;6.70;;;;;;;-141.97;72.70;47619.03;5014947;28;20205;-84
2023/09/29 01:49:42;;;;;;;9.87;6.13;;;;;;;-141.97;72.21;47561.38;5023768;28;20170;-83
2023/09/29 01:52:07;;;;;;;13.97;6.30;;;;;;;-141.97;71.86;47569.06;5020973;28;20171;-84
2023/09/29 01:54:33;;;;;;;9.50;6.20;;;;;;;-141.97;71.25;47595.97;5012699;28;20289;-85
2023/09/29 01:57:01;;;;;;;11.23;6.43;;;;;;;-141.97;70.47;47588.28;5014661;28;20174;-86
2023/09/29 01:59:27;;;;;;;9.17;6.50;;;;;;;-141.97;70.76;47551.75;5013849;28;20202;-85
2023/09/29 02:01:54;;;;;;;11.73;6.30;;;;;;;-141.97;70.24;47603.66;5014644;28;20220;-84
2023/09/29 02:04:19;;;;;;;13.20;6.27;;;;;;;-141.97;70.42;47622.88;5008596;28;20595;-85
2023/09/29 02:06:45;;;;;;;9.77;6.00;;;;;;;-141.97;69.94;47561.38;5023004;28;20272;-85
2023/09/29 02:09:10;;;;;;;12.03;6.50;;;;;;;-141.97;70.13;47526.75;5041886;28;20176;-85
2023/09/29 02:11:40;;;;;;;11.47;6.40;;;;;;;-141.97;70.33;47561.38;5035253;28;20193;-85
2023/09/29 02:14:06;;;;;;;8.90;6.20;;;;;;;-141.97;70.79;47722.81;5037256;28;20318;-84
2023/09/29 02:16:33;;;;;;;10.87;5.80;;;;;;;-141.97;71.01;47465.25;5019609;28;20624;-85
2023/09/29 02:18:58;;;;;;;9.70;6.07;;;;;;;-141.97;70.91;47590.19;5014790;28;20232;-85
2023/09/29 02:21:27;;;;;;;9.90;6.20;;;;;;;-141.97;70.83;47584.44;5014151;28;20183;-84
2023/09/29 02:23:55;;;;;;;9.07;6.53;;;;;;;-141.97;71.57;47567.13;5013276;28;20167;-85
2023/09/29 02:26:22;;;;;;;11.47;6.40;;;;;;;-141.97;71.40;47686.31;5014758;28;20166;-84
2023/09/29 02:28:48;;;;;;;15.93;6.90;;;;;;;-141.97;70.85;47605.56;5013934;28;20543;-84
2023/09/29 02:31:14;;;;;;;13.83;6.53;;;;;;;-141.97;70.58;47624.78;5012438;28;20178;-83
2023/09/29 02:33:40;;;;;;;13.37;7.17;;;;;;;-141.97;70.23;47595.97;5014199;28;20174;-84
2023/09/29 02:36:09;;;;;;;10.40;6.80;;;;;;;-141.97;70.39;47572.91;5012817;28;20305;-84
2023/09/29 02:38:37;;;;;;;12.03;7.00;;;;;;;-141.97;70.65;47570.97;5011566;28;20198;-84
2023/09/29 02:41:04;;;;;;;15.37;7.00;;;;;;;-141.97;70.41;47570.97;5013712;28;20194;-84
2023/09/29 02:43:30;;;;;;;12.13;6.73;;;;;;;-141.97;71.67;47595.97;5002730;28;20694;-85
2023/09/29 02:45:56;;;;;;;11.97;6.40;;;;;;;-141.97;72.89;47584.44;5012723;28;20250;-84
2023/09/29 02:48:22;;;;;;;9.17;6.67;;;;;;;-141.97;73.54;47630.56;5024741;28;20178;-85
2023/09/29 02:50:47;;;;;;;10.30;6.70;;;;;;;-141.97;74.08;47743.97;5034851;28;20171;-84
2023/09/29 02:53:14;;;;;;;11.80;6.90;;;;;;;-141.97;74.20;47607.50;5023358;28;20679;-85
2023/09/29 02:55:40;;;;;;;9.67;6.27;;;;;;;-141.97;74.36;47565.22;5018550;28;20191;-83
2023/09/29 02:58:07;;;;;;;12.43;6.60;;;;;;;-141.97;74.80;47607.50;5011424;28;20254;-83
2023/09/29 03:00:32;;;;;;;13.50;6.73;;;;;;;-141.97;74.78;47565.22;5012303;28;20197;-85
2023/09/29 03:02:58;;;;;;;16.67;6.93;;;;;;;-141.97;75.05;47532.53;5012462;28;20582;-85
2023/09/29 03:05:25;;;;;;;13.20;6.80;;;;;;;-141.97;74.69;47582.50;5011813;28;20245;-84
2023/09/29 03:07:51;;;;;;;12.93;6.57;;;;;;;-141.97;74.11;47515.22;5012740;28;20163;-84
2023/09/29 03:10:17;;;;;;;11.50;6.83;;;;;;;-141.97;73.75;47603.66;5012376;28;20173;-84
2023/09/29 03:12:44;;;;;;;11.67;6.33;;;;;;;-141.97;73.56;47620.94;5011380;28;20184;-84
2023/09/29 03:15:14;;;;;;;9.80;6.17;;;;;;;-141.97;73.22;47569.06;5009999;28;20218;-84
2023/09/29 03:17:39;;;;;;;11.60;6.80;;;;;;;-141.97;73.09;47617.09;5012448;28;20217;-85
2023/09/29 03:20:09;;;;;;;11.97;6.00;;;;;;;-141.97;73.13;47605.56;5012503;28;20596;-85
2023/09/29 03:22:37;;;;;;;12.17;6.57;;;;;;;-141.97;73.10;47538.28;4992306;28;20171;-89
2023/09/29 03:25:03;;;;;;;10.50;6.10;;;;;;;-141.97;72.98;47599.81;5000038;28;20578;-85
2023/09/29 03:27:28;;;;;;;11.27;6.23;;;;;;;-141.97;72.55;47619.03;5012076;28;20171;-84
2023/09/29 03:29:54;;;;;;;9.83;6.03;;;;;;;-141.97;72.75;47603.66;5011701;28;20177;-85
2023/09/29 03:32:19;;;;;;;10.93;5.77;;;;;;;-141.97;72.66;47599.81;5012287;28;20171;-85
2023/09/29 03:34:44;;;;;;;10.67;6.03;;;;;;;-141.97;72.89;47561.38;5011667;28;20280;-85
2023/09/29 03:37:10;;;;;;;14.30;6.07;;;;;;;-141.97;72.84;47570.97;5011822;28;20175;-85
2023/09/29 03:39:36;;;;;;;10.13;6.20;;;;;;;-141.97;72.59;47607.50;5012772;28;20567;-85
2023/09/29 03:42:01;;;;;;;12.30;5.87;;;;;;;-141.97;72.78;47607.50;5001446;28;20241;-85
2023/09/29 03:44:27;;;;;;;11.20;6.10;;;;;;;-141.97;72.95;47584.44;5010507;28;20222;-86
2023/09/29 03:46:53;;;;;;;9.30;6.57;;;;;;;-141.97;73.09;47607.50;5012777;28;20249;-86
2023/09/29 03:49:19;;;;;;;14.40;6.00;;;;;;;-141.97;72.90;47661.31;5011975;28;20216;-85
2023/09/29 03:51:45;;;;;;;10.97;5.70;;;;;;;-141.97;73.12;47584.44;5011331;28;20258;-85
2023/09/29 03:54:10;;;;;;;11.20;6.20;;;;;;;-141.97;72.81;47513.31;5010337;28;20304;-83
2023/09/29 03:56:35;;;;;;;11.03;5.90;;;;;;;-141.97;72.98;47592.13;5012293;28;20221;-86
2023/09/29 03:59:01;;;;;;;10.07;6.10;;;;;;;-141.97;72.74;47530.59;5011311;28;20179;-84
2023/09/29 04:01:27;;;;;;;13.13;6.30;;;;;;;-141.97;72.59;47561.38;5011507;28;20159;-85
2023/09/29 04:03:54;;;;;;;11.57;5.70;;;;;;;-141.97;72.26;47757.41;5012937;28;20166;-84
2023/09/29 04:06:20;;;;;;;9.77;6.00;;;;;;;-141.97;71.83;47582.50;5011528;28;20171;-84
2023/09/29 04:08:46;;;;;;;11.67;6.37;;;;;;;-141.97;71.96;47590.19;5012701;28;20174;-85
2023/09/29 04:11:12;;;;;;;10.67;5.93;;;;;;;-141.97;71.85;47626.72;5014270;28;20316;-85
2023/09/29 04:13:38;;;;;;;10.30;6.33;;;;;;;-141.97;71.37;47398.00;5029243;28;20159;-81
2023/09/29 04:16:07;;;;;;;17.10;7.97;;;;;;;-141.97;71.03;47519.06;5020924;28;20194;-84
2023/09/29 04:18:33;;;;;;;22.13;12.50;;;;;;;-141.97;71.08;47601.72;5026121;28;20163;-83
2023/09/29 04:21:01;;;;;;;18.13;7.97;;;;;;;-141.97;70.99;47776.63;5023298;28;20244;-85
2023/09/29 04:23:27;;;;;;;16.27;7.10;;;;;;;-141.97;71.08;47592.13;5020781;28;20175;-84
2023/09/29 04:25:53;;;;;;;19.20;6.90;;;;;;;-141.97;71.01;47607.50;5017110;28;20179;-84
2023/09/29 04:28:19;;;;;;;13.87;7.00;;;;;;;-141.97;70.92;47549.84;5012684;28;20174;-86
2023/09/29 04:30:45;;;;;;;12.13;6.90;;;;;;;-141.97;70.39;47578.66;5011686;28;20169;-83
2023/09/29 04:33:10;;;;;;;14.47;6.77;;;;;;;-141.97;70.38;47768.94;5011736;28;20171;-85
2023/09/29 04:35:36;;;;;;;15.03;6.57;;;;;;;-141.97;70.04;47611.34;5011417;28;20591;-84
2023/09/29 04:38:02;;;;;;;16.43;6.47;;;;;;;-141.97;70.12;47595.97;5010696;28;20482;-85
2023/09/29 04:40:28;;;;;;;14.50;6.77;;;;;;;-141.97;70.03;47630.56;5011863;28;20225;-83
2023/09/29 04:42:54;;;;;;;15.00;6.90;;;;;;;-141.97;69.81;47611.34;5001872;28;20237;-84
2023/09/29 04:45:19;;;;;;;14.70;6.70;;;;;;;-141.97;69.76;47630.56;5003719;28;20226;-84
2023/09/29 04:47:45;;;;;;;14.37;6.90;;;;;;;-141.97;69.17;47615.19;4999365;28;20625;-84
2023/09/29 04:50:10;;;;;;;14.70;6.93;;;;;;;-141.97;69.13;47609.41;5016582;28;20186;-84
2023/09/29 04:52:36;;;;;;;16.60;6.87;;;;;;;-141.97;68.64;47595.97;5016058;28;20651;-83
2023/09/29 04:55:01;;;;;;;18.13;7.30;;;;;;;-141.97;68.08;47645.94;5017534;28;20627;-83
2023/09/29 04:57:26;;;;;;;15.57;6.73;;;;;;;-141.97;67.85;47584.44;5016498;28;20182;-83
2023/09/29 04:59:52;;;;;;;14.00;6.13;;;;;;;-141.97;67.68;47546.00;5015456;28;20171;-87
2023/09/29 05:02:17;;;;;;;14.27;6.50;;;;;;;-141.97;67.26;47617.09;5015112;28;20198;-83
2023/09/29 05:04:43;;;;;;;14.23;6.47;;;;;;;-141.97;66.60;47503.69;5015036;28;20258;-83
2023/09/29 05:07:08;;;;;;;17.53;6.20;;;;;;;-141.97;66.52;47603.66;5004624;28;20186;-82
2023/09/29 05:09:37;;;;;;;11.27;5.97;;;;;;;-141.97;66.25;47611.34;5007442;28;20183;-84
2023/09/29 05:12:04;;;;;;;16.93;6.50;;;;;;;-141.97;66.08;47582.50;5014412;28;20186;-84
2023/09/29 05:14:30;;;;;;;12.40;6.60;;;;;;;-141.97;66.04;47595.97;5013686;28;20285;-86
2023/09/29 05:16:55;;;;;;;14.60;6.50;;;;;;;-141.97;66.03;47565.22;5014499;28;20232;-86
2023/09/29 05:19:21;;;;;;;12.20;6.60;;;;;;;-141.97;66.01;47607.50;5015581;28;20170;-88
2023/09/29 05:21:47;;;;;;;11.93;6.03;;;;;;;-141.97;65.76;47544.06;5013150;28;20182;-87
2023/09/29 05:24:12;;;;;;;11.03;5.50;;;;;;;-141.97;65.83;47442.19;5013304;28;20270;-87
2023/09/29 05:26:37;;;;;;;12.03;5.67;;;;;;;-141.97;65.42;47430.66;5015670;28;20222;-87
2023/09/29 05:29:04;;;;;;;11.50;5.80;;;;;;;-141.97;65.04;47595.97;5029851;28;20175;-87
2023/09/29 05:31:30;;;;;;;11.50;5.93;;;;;;;-141.97;64.89;47622.88;5034038;28;20147;-87
2023/09/29 05:33:56;;;;;;;12.13;6.23;;;;;;;-141.97;64.80;47569.06;5022062;28;20678;-87
2023/09/29 05:36:21;;;;;;;11.77;6.30;;;;;;;-141.97;64.27;47513.31;5014416;28;20171;-87
2023/09/29 05:38:47;;;;;;;13.97;6.43;;;;;;;-141.97;63.54;47549.84;5013770;28;20170;-87
2023/09/29 05:41:12;;;;;;;9.87;6.13;;;;;;;-141.97;62.76;47494.09;5014806;28;20200;-87
2023/09/29 05:43:38;;;;;;;14.23;6.13;;;;;;;-141.97;62.38;47515.22;5015899;28;20636;-87
2023/09/29 05:46:03;;;;;;;15.30;6.00;;;;;;;-141.97;61.59;47753.56;5016294;28;20171;-87
2023/09/29 05:48:29;;;;;;;14.80;6.10;;;;;;;-141.97;60.87;47565.22;5016148;28;20167;-87
2023/09/29 05:50:55;;;;;;;14.03;5.83;;;;;;;-141.97;59.53;47667.06;5014903;28;20177;-86
2023/09/29 05:53:20;;;;;;;14.77;6.27;;;;;;;-141.97;59.17;47580.59;5013045;28;20174;-86
2023/09/29 05:55:46;;;;;;;18.17;6.30;;;;;;;-141.97;58.50;47536.38;5014174;28;20194;-87
2023/09/29 05:58:11;;;;;;;17.13;5.83;;;;;;;-141.97;58.06;47549.84;5014358;28;20179;-87
2023/09/29 06:00:37;;;;;;;12.77;6.37;;;;;;;-141.97;57.58;47717.06;5012769;28;20179;-86
2023/09/29 06:03:02;;;;;;;14.17;6.30;;;;;;;-141.97;57.34;47469.09;5014902;28;20186;-87
2023/09/29 06:05:28;;;;;;;13.10;6.00;;;;;;;-141.97;56.13;47447.97;5013115;28;20655;-88
2023/09/29 06:07:54;;;;;;;15.60;5.73;;;;;;;-141.97;55.53;47557.53;5014737;28;20183;-87
2023/09/29 06:10:20;;;;;;;12.00;5.70;;;;;;;-141.97;54.37;47547.91;5013470;28;20237;-87
2023/09/29 06:12:45;;;;;;;16.03;6.00;;;;;;;-141.97;54.03;47538.28;5013671;28;20178;-86
2023/09/29 06:15:11;;;;;;;16.67;6.10;;;;;;;-141.97;53.04;47411.44;5013362;28;20210;-86
2023/09/29 06:17:37;;;;;;;13.30;5.87;;;;;;;-141.97;53.40;47476.78;5016012;28;20163;-87
2023/09/29 06:20:04;;;;;;;13.70;6.20;;;;;;;-141.97;52.65;47534.44;5015619;28;20171;-87
2023/09/29 06:22:29;;;;;;;15.33;6.37;;;;;;;-141.97;52.72;47713.22;5014172;28;20218;-87
2023/09/29 06:24:55;;;;;;;11.93;5.40;;;;;;;-141.97;51.29;47367.25;5015785;28;20185;-87
2023/09/29 06:27:20;;;;;;;13.57;5.73;;;;;;;-141.97;50.57;47428.75;5021366;28;20167;-87
2023/09/29 06:29:49;;;;;;;12.90;5.47;;;;;;;-141.97;50.68;47669.00;5021074;28;20177;-86
2023/09/29 06:32:18;;;;;;;16.63;6.33;;;;;;;-141.97;50.12;47515.22;5025857;28;20242;-87
2023/09/29 06:34:43;;;;;;;19.47;6.60;;;;;;;-141.97;49.51;47492.16;5035967;28;20225;-86
2023/09/29 06:37:09;;;;;;;12.77;5.70;;;;;;;-141.97;48.40;47661.31;5033609;28;20185;-85
2023/09/29 06:39:35;;;;;;;13.03;5.70;;;;;;;-141.97;48.55;47396.06;5032905;28;20185;-87
2023/09/29 06:42:01;;;;;;;16.33;5.83;;;;;;;-141.97;48.31;47753.56;5034479;28;20162;-88
2023/09/29 06:44:26;;;;;;;13.30;5.30;;;;;;;-141.97;48.07;47557.53;5033098;28;20233;-85
2023/09/29 06:46:52;;;;;;;21.13;5.93;;;;;;;-141.97;47.21;47484.47;5014579;28;20179;-89
2023/09/29 06:49:17;;;;;;;12.97;5.33;;;;;;;-141.97;47.46;47538.28;5013683;28;20708;-88
2023/09/29 06:51:43;;;;;;;13.73;5.60;;;;;;;-141.97;47.12;47570.97;5012706;28;20177;-85
2023/09/29 06:54:10;;;;;;;15.37;6.20;;;;;;;-141.97;47.29;47565.22;5012257;28;20340;-86
2023/09/29 06:56:36;;;;;;;11.43;5.93;;;;;;;-141.97;46.54;47530.59;5011564;28;20178;-85
2023/09/29 06:59:01;;;;;;;9.57;5.40;;;;;;;-141.97;46.67;47569.06;5013225;28;20178;-85
2023/09/29 07:01:27;;;;;;;9.03;4.90;;;;;;;-141.97;46.45;47507.53;5012653;28;20647;-86
2023/09/29 07:03:53;;;;;;;10.53;4.83;;;;;;;-141.97;46.39;47472.94;5012596;28;20266;-86
2023/09/29 07:06:22;;;;;;;10.47;5.17;;;;;;;-141.97;46.93;47607.50;5011948;28;20171;-88
2023/09/29 07:08:48;;;;;;;15.13;5.30;;;;;;;-141.97;46.85;47376.84;5011296;28;20174;-85
2023/09/29 07:11:13;;;;;;;10.43;5.43;;;;;;;-141.97;45.97;47519.06;5010345;28;20661;-84
2023/09/29 07:13:38;;;;;;;13.67;5.97;;;;;;;-141.97;45.32;47455.66;5010844;28;20174;-84
2023/09/29 07:16:04;;;;;;;13.00;5.37;;;;;;;-141.97;45.03;47536.38;5011869;28;20656;-86
2023/09/29 07:18:29;;;;;;;11.20;5.37;;;;;;;-141.97;44.22;47546.00;5010890;28;20253;-85
2023/09/29 07:20:57;;;;;;;10.87;4.80;;;;;;;-141.97;43.81;47534.44;5010763;28;20171;-85
2023/09/29 07:23:23;;;;;;;13.00;5.43;;;;;;;-141.97;44.41;47557.53;5011905;28;20627;-86
2023/09/29 07:25:51;;;;;;;16.30;5.60;;;;;;;-141.97;44.43;47718.97;5011993;28;20186;-85
2023/09/29 07:28:16;;;;;;;13.93;5.07;;;;;;;-141.97;43.56;47519.06;5012137;28;20182;-86
2023/09/29 07:30:42;;;;;;;9.43;4.97;;;;;;;-141.97;42.75;47557.53;5010395;28;20189;-89
2023/09/29 07:33:09;;;;;;;9.37;4.80;;;;;;;-141.97;43.13;47519.06;5011865;28;20170;-87
2023/09/29 07:35:34;;;;;;;10.37;5.00;;;;;;;-141.97;43.54;47565.22;5011395;28;20293;-86
2023/09/29 07:38:00;;;;;;;13.97;5.37;;;;;;;-141.97;43.96;47544.06;5011756;28;20209;-87
2023/09/29 07:40:26;;;;;;;11.73;4.80;;;;;;;-141.97;43.89;47701.69;5012012;28;20179;-87
2023/09/29 07:42:51;;;;;;;12.97;5.40;;;;;;;-141.97;43.75;47474.88;5011978;28;20171;-86
2023/09/29 07:45:18;;;;;;;11.80;4.40;;;;;;;-141.97;43.15;47309.59;5011001;28;20223;-87
2023/09/29 07:47:44;;;;;;;8.53;5.17;;;;;;;-141.97;43.27;47509.47;5010511;28;20268;-87
2023/09/29 07:50:10;;;;;;;14.10;5.23;;;;;;;-141.97;43.01;47521.00;5012556;28;20163;-86
2023/09/29 07:52:37;;;;;;;10.70;4.70;;;;;;;-141.97;42.06;47626.72;5011945;28;20178;-87
2023/09/29 07:55:04;;;;;;;12.20;5.30;;;;;;;-141.97;42.36;47501.78;5014116;28;20197;-86
2023/09/29 07:57:30;;;;;;;10.97;5.20;;;;;;;-141.97;41.64;47534.44;5019455;28;20708;-86
2023/09/29 07:59:55;;;;;;;15.20;4.90;;;;;;;-141.97;39.89;47546.00;5026136;28;20190;-86
2023/09/29 08:02:21;;;;;;;8.53;4.60;;;;;;;-141.97;39.43;47447.97;5034628;28;20171;-86
2023/09/29 08:04:46;;;;;;;10.73;4.37;;;;;;;-141.97;38.71;47563.28;5014751;28;20616;-86
2023/09/29 08:07:13;;;;;;;11.10;4.47;;;;;;;-141.97;38.73;47549.84;5013511;28;20229;-86
2023/09/29 08:09:38;;;;;;;8.90;4.67;;;;;;;-141.97;38.10;47457.56;5031570;28;20174;-86
2023/09/29 08:12:04;;;;;;;12.53;4.80;;;;;;;-141.97;38.32;47411.44;5035715;28;20194;-85
2023/09/29 08:14:32;;;;;;;11.03;4.53;;;;;;;-141.97;37.22;47440.28;5011386;28;20206;-85
2023/09/29 08:16:58;;;;;;;7.67;4.13;;;;;;;-141.97;36.44;47524.84;5012997;28;20174;-87
2023/09/29 08:19:23;;;;;;;9.50;4.60;;;;;;;-141.97;35.89;47532.53;5015284;28;21066;-87
2023/09/29 08:21:49;;;;;;;12.95;5.13;;;;;;;-141.97;36.38;47426.81;5009921;28;20180;-87
2023/09/29 08:24:15;;;;;;;8.43;4.68;;;;;;;-141.97;35.78;47476.78;5011401;28;20175;-85
2023/09/29 08:26:40;;;;;;;17.13;5.28;;;;;;;-141.97;35.65;47340.34;5011181;28;20176;-86
2023/09/29 08:29:08;;;;;;;9.57;5.03;;;;;;;-141.97;35.93;47432.59;5009772;28;20178;-86
2023/09/29 08:31:34;;;;;;;12.25;5.10;;;;;;;-141.97;35.55;47230.78;5011596;28;20630;-86
2023/09/29 08:33:59;;;;;;;8.70;5.10;;;;;;;-141.97;35.75;47392.22;5012259;28;20185;-85
2023/09/29 08:36:25;;;;;;;9.60;4.80;;;;;;;-141.97;36.16;47488.31;5017481;28;20182;-86
2023/09/29 08:38:50;;;;;;;12.73;4.93;;;;;;;-141.97;35.75;47476.78;5024457;28;20207;-86
2023/09/29 08:41:19;;;;;;;10.00;4.93;;;;;;;-141.97;35.70;47724.75;5019683;28;20163;-87
2023/09/29 08:43:47;;;;;;;7.97;4.32;;;;;;;-141.97;35.57;47471.03;5019794;28;20229;-85
2023/09/29 08:46:14;;;;;;;13.35;4.90;;;;;;;-141.97;35.42;47194.28;5018824;28;20231;-86
2023/09/29 08:48:43;;;;;;;11.85;4.95;;;;;;;-141.97;35.37;47595.97;5016372;28;20178;-86
2023/09/29 08:51:09;;;;;;;7.45;4.65;;;;;;;-141.97;34.42;47669.00;5010049;28;20617;-87
2023/09/29 08:53:38;;;;;;;10.05;4.78;;;;;;;-141.97;33.84;47407.59;5010975;28;20547;-87
2023/09/29 08:56:11;;;;;;;9.52;4.93;;;;;;;-141.97;34.01;47494.09;5010472;28;20213;-84
2023/09/29 08:58:37;;;;;;;9.82;4.75;;;;;;;-141.97;33.67;47505.63;5015360;28;20167;-86
2023/09/29 09:01:03;;;;;;;7.70;4.70;;;;;;;-141.97;33.57;47474.88;5031901;28;20168;-85
2023/09/29 09:03:29;;;;;;;9.80;4.22;;;;;;;-141.97;33.36;47380.69;5021606;28;20630;-87
2023/09/29 09:05:55;;;;;;;12.20;4.80;;;;;;;-141.97;32.66;47530.59;5012621;28;20259;-88
2023/09/29 09:08:23;;;;;;;11.80;5.00;;;;;;;-141.97;32.51;47480.63;5011658;28;20168;-86
2023/09/29 09:10:49;;;;;;;12.13;5.05;;;;;;;-141.97;31.66;47453.72;5011069;28;20192;-85
2023/09/29 09:13:20;;;;;;;10.57;5.28;;;;;;;-141.97;31.54;47326.88;5011721;28;20179;-86
2023/09/29 09:15:57;;;;;;;14.32;4.97;;;;;;;-141.97;32.26;47484.47;5011558;28;20200;-87
2023/09/29 09:18:25;;;;;;;13.52;5.10;;;;;;;-141.97;31.37;47334.56;5011605;28;20181;-86
2023/09/29 09:20:52;;;;;;;7.35;5.05;;;;;;;-141.97;31.06;47457.56;5009657;28;20179;-85
2023/09/29 09:23:18;;;;;;;13.32;5.65;;;;;;;-141.97;30.79;47194.28;5009951;28;20213;-87
2023/09/29 09:25:43;;;;;;;8.45;5.25;;;;;;;-141.97;30.37;47711.28;5012431;28;20676;-87
2023/09/29 09:28:16;;;;;;;9.70;5.20;;;;;;;-141.97;29.43;47411.44;5010481;28;20248;-86
2023/09/29 09:30:42;;;;;;;10.82;5.60;;;;;;;-141.97;28.86;47442.19;5012577;28;20186;-86
2023/09/29 09:33:16;;;;;;;9.40;5.30;;;;;;;-141.97;28.78;47396.06;5027254;28;20269;-87
2023/09/29 09:35:42;;;;;;;18.73;6.68;;;;;;;-141.97;27.67;47175.06;5014271;28;20228;-86
2023/09/29 09:38:08;;;;;;;12.77;7.28;;;;;;;-141.97;27.33;47371.09;5015559;28;20630;-87
2023/09/29 09:40:34;;;;;;;13.88;9.07;;;;;;;-141.97;26.92;47407.59;5015478;28;20176;-85
2023/09/29 09:43:04;;;;;;;9.80;5.63;;;;;;;-141.97;28.05;47303.81;5013940;28;20173;-87
2023/09/29 09:45:40;;;;;;;11.45;5.88;;;;;;;-141.97;28.51;47421.06;5017446;28;20231;-89
2023/09/29 09:48:18;;;;;;;13.15;6.18;;;;;;;-141.97;28.49;47426.81;5031554;28;20621;-86
2023/09/29 09:50:45;;;;;;;8.07;6.05;;;;;;;-141.97;28.75;47409.53;5014871;28;20193;-88
2023/09/29 09:53:13;;;;;;;13.80;6.30;;;;;;;-141.97;28.24;47392.22;5016733;28;20173;-87
2023/09/29 09:55:50;;;;;;;14.63;5.97;;;;;;;-141.97;27.65;47276.91;5012937;28;20319;-86
2023/09/29 09:58:17;;;;;;;14.27;5.85;;;;;;;-141.97;27.26;47401.84;5001887;28;20164;-85
2023/09/29 10:00:45;;;;;;;13.65;5.80;;;;;;;-141.97;27.29;47407.59;5001766;28;20234;-85
2023/09/29 10:03:12;;;;;;;16.88;6.38;;;;;;;-141.97;27.55;47405.69;4999642;28;20193;-87
2023/09/29 10:05:41;;;;;;;10.48;5.47;;;;;;;-141.97;27.57;47236.56;5019843;28;20239;-87
2023/09/29 10:08:08;;;;;;;10.20;5.55;;;;;;;-141.97;26.73;47630.56;5020311;28;20181;-88
2023/09/29 10:10:36;;;;;;;14.15;7.30;;;;;;;-141.97;26.79;47384.53;5019151;28;20180;-87
2023/09/29 10:13:03;;;;;;;9.18;6.07;;;;;;;-141.97;26.42;47326.88;5020765;28;20169;-87
2023/09/29 10:15:32;;;;;;;9.60;6.07;;;;;;;-141.97;26.06;47373.00;5021707;28;20198;-85
2023/09/29 10:18:14;;;;;;;16.95;5.97;;;;;;;-141.97;26.26;47369.16;5023616;28;20174;-87
2023/09/29 10:20:39;;;;;;;13.45;6.57;;;;;;;-141.97;25.66;47276.91;5026164;28;20176;-87
2023/09/29 10:23:07;;;;;;;10.75;6.25;;;;;;;-141.97;25.37;47453.72;5024785;28;20178;-87
2023/09/29 10:25:35;;;;;;;11.43;6.72;;;;;;;-141.97;25.27;47538.28;5023957;28;20270;-88
2023/09/29 10:28:06;;;;;;;10.23;6.38;;;;;;;-141.97;24.71;47361.47;5016872;28;20642;-87
2023/09/29 10:30:33;;;;;;;14.15;5.70;;;;;;;-141.97;25.25;47384.53;5016542;28;20205;-86
2023/09/29 10:33:07;;;;;;;11.90;5.80;;;;;;;-141.97;25.07;47355.72;5017069;28;20677;-89
2023/09/29 10:35:34;;;;;;;9.05;5.07;;;;;;;-141.97;24.68;47107.78;5013191;28;20714;-89
2023/09/29 10:38:08;;;;;;;10.38;5.53;;;;;;;-141.97;24.29;47376.84;5020526;28;20171;-88
2023/09/29 10:40:36;;;;;;;12.18;4.90;;;;;;;-141.97;24.56;47428.75;5035424;28;20171;-88
2023/09/29 10:43:02;;;;;;;8.93;5.32;;;;;;;-141.97;24.71;47203.88;5017167;28;20246;-88
2023/09/29 10:45:37;;;;;;;12.07;5.72;;;;;;;-141.97;25.32;47353.78;5019732;28;20249;-87
2023/09/29 10:48:11;;;;;;;10.15;5.53;;;;;;;-141.97;25.05;47376.84;5038001;28;20162;-86
2023/09/29 10:50:43;;;;;;;8.23;5.32;;;;;;;-141.97;25.25;47382.63;5037335;28;20178;-86
2023/09/29 10:53:10;;;;;;;12.60;5.70;;;;;;;-141.97;25.02;47373.00;5036174;28;20221;-87
2023/09/29 10:55:42;;;;;;;8.65;5.50;;;;;;;-141.97;25.16;47453.72;5024286;28;20198;-90
2023/09/29 10:58:11;;;;;;;15.48;13.18;;;;;;;-141.97;24.52;47569.06;5020932;28;20179;-89
2023/09/29 11:00:48;;;;;;;15.00;11.45;;;;;;;-141.97;24.45;47232.72;5020701;28;20604;-91
2023/09/29 11:03:20;;;;;;;16.40;9.88;;;;;;;-141.97;24.21;47142.38;5016630;28;20209;-89
2023/09/29 11:05:50;;;;;;;13.10;6.68;;;;;;;-141.97;23.98;47315.34;5015450;28;20181;-89
2023/09/29 11:08:20;;;;;;;8.48;5.75;;;;;;;-141.97;23.48;47330.72;5031454;28;20174;-88
2023/09/29 11:10:56;;;;;;;8.10;5.63;;;;;;;-141.97;24.23;47517.16;5012888;28;20206;-91